sensor_id;sensor_type;location;lat;lon;timestamp;P1;durP1;ratioP1;P2;durP2;ratioP2
71806;SDS011;59655;42.590;23.364;2023-02-15T00:00:25;14.25;;;11.23;;
71806;SDS011;59655;42.590;23.364;2023-02-15T00:02:51;14.52;;;12.05;;
71806;SDS011;59655;42.590;23.364;2023-02-15T00:05:16;15.88;;;10.35;;
71806;SDS011;59655;42.590;23.364;2023-02-15T00:07:42;14.20;;;9.85;;
71806;SDS011;59655;42.590;23.364;2023-02-15T00:10:07;13.95;;;8.70;;
71806;SDS011;59655;42.590;23.364;2023-02-15T00:12:33;13.18;;;8.80;;
71806;SDS011;59655;42.590;23.364;2023-02-15T00:14:58;12.23;;;9.77;;
71806;SDS011;59655;42.590;23.364;2023-02-15T00:17:26;12.93;;;10.40;;
71806;SDS011;59655;42.590;23.364;2023-02-15T00:22:17;14.13;;;9.97;;
71806;SDS011;59655;42.590;23.364;2023-02-15T00:24:43;14.75;;;10.65;;
71806;SDS011;59655;42.590;23.364;2023-02-15T00:27:08;14.75;;;11.15;;
71806;SDS011;59655;42.590;23.364;2023-02-15T00:29:34;14.82;;;11.25;;
71806;SDS011;59655;42.590;23.364;2023-02-15T00:31:59;15.02;;;11.45;;
71806;SDS011;59655;42.590;23.364;2023-02-15T00:34:26;15.43;;;11.63;;
71806;SDS011;59655;42.590;23.364;2023-02-15T00:36:53;13.98;;;11.20;;
71806;SDS011;59655;42.590;23.364;2023-02-15T00:39:19;13.10;;;10.27;;
71806;SDS011;59655;42.590;23.364;2023-02-15T00:41:45;14.07;;;10.82;;
71806;SDS011;59655;42.590;23.364;2023-02-15T00:44:11;14.35;;;12.25;;
71806;SDS011;59655;42.590;23.364;2023-02-15T00:46:37;14.20;;;10.70;;
71806;SDS011;59655;42.590;23.364;2023-02-15T00:49:03;15.25;;;12.10;;
71806;SDS011;59655;42.590;23.364;2023-02-15T00:51:29;13.98;;;10.75;;
71806;SDS011;59655;42.590;23.364;2023-02-15T00:53:55;17.10;;;13.27;;
71806;SDS011;59655;42.590;23.364;2023-02-15T00:56:20;14.27;;;10.23;;
71806;SDS011;59655;42.590;23.364;2023-02-15T00:58:46;14.30;;;10.93;;
71806;SDS011;59655;42.590;23.364;2023-02-15T01:01:13;13.63;;;10.50;;
71806;SDS011;59655;42.590;23.364;2023-02-15T01:03:40;14.25;;;11.55;;
71806;SDS011;59655;42.590;23.364;2023-02-15T01:06:09;13.25;;;10.95;;
71806;SDS011;59655;42.590;23.364;2023-02-15T01:08:36;14.93;;;11.20;;
71806;SDS011;59655;42.590;23.364;2023-02-15T01:11:06;12.93;;;9.95;;
71806;SDS011;59655;42.590;23.364;2023-02-15T01:13:33;14.02;;;10.10;;
71806;SDS011;59655;42.590;23.364;2023-02-15T01:15:59;13.68;;;10.40;;
71806;SDS011;59655;42.590;23.364;2023-02-15T01:18:24;12.25;;;9.68;;
71806;SDS011;59655;42.590;23.364;2023-02-15T01:20:50;14.45;;;11.55;;
71806;SDS011;59655;42.590;23.364;2023-02-15T01:23:15;13.50;;;10.77;;
71806;SDS011;59655;42.590;23.364;2023-02-15T01:25:41;12.20;;;9.07;;
71806;SDS011;59655;42.590;23.364;2023-02-15T01:28:06;12.07;;;9.85;;
71806;SDS011;59655;42.590;23.364;2023-02-15T01:30:32;12.95;;;10.23;;
71806;SDS011;59655;42.590;23.364;2023-02-15T01:32:59;12.93;;;9.63;;
71806;SDS011;59655;42.590;23.364;2023-02-15T01:35:26;12.25;;;9.95;;
71806;SDS011;59655;42.590;23.364;2023-02-15T01:37:51;12.75;;;10.10;;
71806;SDS011;59655;42.590;23.364;2023-02-15T01:40:17;12.50;;;10.18;;
71806;SDS011;59655;42.590;23.364;2023-02-15T01:42:43;11.73;;;9.15;;
71806;SDS011;59655;42.590;23.364;2023-02-15T01:47:59;12.57;;;10.43;;
71806;SDS011;59655;42.590;23.364;2023-02-15T01:50:43;12.63;;;9.93;;
71806;SDS011;59655;42.590;23.364;2023-02-15T01:55:59;13.48;;;10.27;;
71806;SDS011;59655;42.590;23.364;2023-02-15T01:58:28;13.98;;;10.23;;
71806;SDS011;59655;42.590;23.364;2023-02-15T02:00:54;12.82;;;9.73;;
71806;SDS011;59655;42.590;23.364;2023-02-15T02:03:24;12.52;;;9.48;;
71806;SDS011;59655;42.590;23.364;2023-02-15T02:05:56;12.68;;;9.65;;
71806;SDS011;59655;42.590;23.364;2023-02-15T02:08:21;13.20;;;10.07;;
71806;SDS011;59655;42.590;23.364;2023-02-15T02:10:46;12.57;;;10.05;;
71806;SDS011;59655;42.590;23.364;2023-02-15T02:13:12;12.80;;;9.82;;
71806;SDS011;59655;42.590;23.364;2023-02-15T02:22:14;11.60;;;9.80;;
71806;SDS011;59655;42.590;23.364;2023-02-15T02:27:47;12.18;;;9.63;;
71806;SDS011;59655;42.590;23.364;2023-02-15T02:43:27;11.65;;;8.68;;
71806;SDS011;59655;42.590;23.364;2023-02-15T02:46:07;10.82;;;9.07;;
71806;SDS011;59655;42.590;23.364;2023-02-15T02:48:38;12.68;;;9.70;;
71806;SDS011;59655;42.590;23.364;2023-02-15T02:51:04;11.45;;;9.60;;
71806;SDS011;59655;42.590;23.364;2023-02-15T02:53:29;12.38;;;8.52;;
71806;SDS011;59655;42.590;23.364;2023-02-15T02:55:58;12.00;;;9.23;;
71806;SDS011;59655;42.590;23.364;2023-02-15T02:58:42;11.48;;;9.50;;
71806;SDS011;59655;42.590;23.364;2023-02-15T03:01:15;11.60;;;8.93;;
71806;SDS011;59655;42.590;23.364;2023-02-15T03:04:17;12.75;;;9.73;;
71806;SDS011;59655;42.590;23.364;2023-02-15T03:06:54;13.15;;;9.73;;
71806;SDS011;59655;42.590;23.364;2023-02-15T03:09:31;12.88;;;9.45;;
71806;SDS011;59655;42.590;23.364;2023-02-15T03:12:13;11.32;;;9.75;;
71806;SDS011;59655;42.590;23.364;2023-02-15T03:14:41;12.05;;;9.90;;
71806;SDS011;59655;42.590;23.364;2023-02-15T03:17:09;12.45;;;9.35;;
71806;SDS011;59655;42.590;23.364;2023-02-15T03:19:37;12.50;;;9.18;;
71806;SDS011;59655;42.590;23.364;2023-02-15T03:22:14;12.55;;;9.18;;
71806;SDS011;59655;42.590;23.364;2023-02-15T03:24:59;10.95;;;8.38;;
71806;SDS011;59655;42.590;23.364;2023-02-15T03:27:40;12.43;;;9.70;;
71806;SDS011;59655;42.590;23.364;2023-02-15T03:30:12;11.07;;;8.95;;
71806;SDS011;59655;42.590;23.364;2023-02-15T03:32:39;11.07;;;8.55;;
71806;SDS011;59655;42.590;23.364;2023-02-15T03:35:08;11.55;;;8.80;;
71806;SDS011;59655;42.590;23.364;2023-02-15T03:43:12;10.52;;;8.20;;
71806;SDS011;59655;42.590;23.364;2023-02-15T03:45:45;11.27;;;8.45;;
71806;SDS011;59655;42.590;23.364;2023-02-15T03:48:25;9.60;;;8.02;;
71806;SDS011;59655;42.590;23.364;2023-02-15T03:50:54;13.00;;;9.40;;
71806;SDS011;59655;42.590;23.364;2023-02-15T03:53:42;11.15;;;8.52;;
71806;SDS011;59655;42.590;23.364;2023-02-15T03:56:09;11.25;;;8.52;;
71806;SDS011;59655;42.590;23.364;2023-02-15T03:58:35;11.82;;;8.88;;
71806;SDS011;59655;42.590;23.364;2023-02-15T04:04:18;10.32;;;9.23;;
71806;SDS011;59655;42.590;23.364;2023-02-15T04:06:45;11.07;;;8.32;;
71806;SDS011;59655;42.590;23.364;2023-02-15T04:09:12;11.77;;;9.82;;
71806;SDS011;59655;42.590;23.364;2023-02-15T04:11:56;12.13;;;9.48;;
71806;SDS011;59655;42.590;23.364;2023-02-15T04:14:22;11.65;;;9.50;;
71806;SDS011;59655;42.590;23.364;2023-02-15T04:17:06;11.88;;;9.77;;
71806;SDS011;59655;42.590;23.364;2023-02-15T04:19:33;12.30;;;8.80;;
71806;SDS011;59655;42.590;23.364;2023-02-15T04:22:17;11.70;;;9.00;;
71806;SDS011;59655;42.590;23.364;2023-02-15T04:25:01;11.40;;;8.75;;
71806;SDS011;59655;42.590;23.364;2023-02-15T04:27:39;12.75;;;9.57;;
71806;SDS011;59655;42.590;23.364;2023-02-15T04:30:10;12.55;;;8.85;;
71806;SDS011;59655;42.590;23.364;2023-02-15T04:32:37;12.30;;;8.88;;
71806;SDS011;59655;42.590;23.364;2023-02-15T04:35:03;14.10;;;10.15;;
71806;SDS011;59655;42.590;23.364;2023-02-15T04:37:30;11.30;;;9.00;;
71806;SDS011;59655;42.590;23.364;2023-02-15T04:39:56;12.45;;;9.77;;
71806;SDS011;59655;42.590;23.364;2023-02-15T04:42:23;12.80;;;9.55;;
71806;SDS011;59655;42.590;23.364;2023-02-15T04:44:49;11.15;;;9.13;;
71806;SDS011;59655;42.590;23.364;2023-02-15T04:47:15;11.73;;;9.15;;
71806;SDS011;59655;42.590;23.364;2023-02-15T04:49:40;12.15;;;9.32;;
71806;SDS011;59655;42.590;23.364;2023-02-15T04:52:06;12.00;;;9.20;;
71806;SDS011;59655;42.590;23.364;2023-02-15T04:54:31;11.48;;;8.73;;
71806;SDS011;59655;42.590;23.364;2023-02-15T04:56:56;10.70;;;8.40;;
71806;SDS011;59655;42.590;23.364;2023-02-15T04:59:22;10.90;;;8.77;;
71806;SDS011;59655;42.590;23.364;2023-02-15T05:01:47;12.00;;;8.85;;
71806;SDS011;59655;42.590;23.364;2023-02-15T05:04:13;11.70;;;8.65;;
71806;SDS011;59655;42.590;23.364;2023-02-15T05:06:38;12.77;;;9.18;;
71806;SDS011;59655;42.590;23.364;2023-02-15T05:09:03;11.13;;;8.93;;
71806;SDS011;59655;42.590;23.364;2023-02-15T05:11:29;12.60;;;9.00;;
71806;SDS011;59655;42.590;23.364;2023-02-15T05:13:54;11.48;;;8.43;;
71806;SDS011;59655;42.590;23.364;2023-02-15T05:16:19;13.23;;;8.63;;
71806;SDS011;59655;42.590;23.364;2023-02-15T05:18:45;11.85;;;8.50;;
71806;SDS011;59655;42.590;23.364;2023-02-15T05:21:10;11.70;;;8.90;;
71806;SDS011;59655;42.590;23.364;2023-02-15T05:23:36;11.13;;;8.80;;
71806;SDS011;59655;42.590;23.364;2023-02-15T05:26:02;11.63;;;8.95;;
71806;SDS011;59655;42.590;23.364;2023-02-15T05:28:46;11.60;;;8.75;;
71806;SDS011;59655;42.590;23.364;2023-02-15T05:33:39;12.00;;;8.95;;
71806;SDS011;59655;42.590;23.364;2023-02-15T05:36:05;12.70;;;9.63;;
71806;SDS011;59655;42.590;23.364;2023-02-15T05:38:32;11.32;;;8.88;;
71806;SDS011;59655;42.590;23.364;2023-02-15T05:40:58;13.63;;;10.02;;
71806;SDS011;59655;42.590;23.364;2023-02-15T05:43:23;11.32;;;9.48;;
71806;SDS011;59655;42.590;23.364;2023-02-15T05:45:50;12.07;;;9.18;;
71806;SDS011;59655;42.590;23.364;2023-02-15T05:48:17;12.98;;;9.82;;
71806;SDS011;59655;42.590;23.364;2023-02-15T05:50:44;13.25;;;9.95;;
71806;SDS011;59655;42.590;23.364;2023-02-15T05:53:09;11.10;;;8.57;;
71806;SDS011;59655;42.590;23.364;2023-02-15T05:55:38;12.05;;;9.45;;
71806;SDS011;59655;42.590;23.364;2023-02-15T05:58:04;11.75;;;9.40;;
71806;SDS011;59655;42.590;23.364;2023-02-15T06:00:30;11.07;;;8.95;;
71806;SDS011;59655;42.590;23.364;2023-02-15T06:02:55;11.55;;;8.30;;
71806;SDS011;59655;42.590;23.364;2023-02-15T06:05:21;12.43;;;8.57;;
71806;SDS011;59655;42.590;23.364;2023-02-15T06:07:47;15.50;;;12.45;;
71806;SDS011;59655;42.590;23.364;2023-02-15T06:10:12;16.35;;;11.35;;
71806;SDS011;59655;42.590;23.364;2023-02-15T06:12:38;22.08;;;15.48;;
71806;SDS011;59655;42.590;23.364;2023-02-15T06:15:03;21.40;;;16.48;;
71806;SDS011;59655;42.590;23.364;2023-02-15T06:17:29;25.30;;;20.48;;
71806;SDS011;59655;42.590;23.364;2023-02-15T06:19:54;16.85;;;12.02;;
71806;SDS011;59655;42.590;23.364;2023-02-15T06:22:20;12.38;;;10.20;;
71806;SDS011;59655;42.590;23.364;2023-02-15T06:24:45;10.80;;;8.38;;
71806;SDS011;59655;42.590;23.364;2023-02-15T06:27:11;13.18;;;10.05;;
71806;SDS011;59655;42.590;23.364;2023-02-15T06:29:37;12.88;;;9.77;;
71806;SDS011;59655;42.590;23.364;2023-02-15T06:32:03;11.82;;;9.27;;
71806;SDS011;59655;42.590;23.364;2023-02-15T06:34:28;15.07;;;10.85;;
71806;SDS011;59655;42.590;23.364;2023-02-15T06:36:54;10.57;;;8.98;;
71806;SDS011;59655;42.590;23.364;2023-02-15T06:39:19;20.60;;;14.77;;
71806;SDS011;59655;42.590;23.364;2023-02-15T06:41:45;14.88;;;10.82;;
71806;SDS011;59655;42.590;23.364;2023-02-15T06:44:10;10.48;;;8.43;;
71806;SDS011;59655;42.590;23.364;2023-02-15T06:46:35;12.52;;;9.45;;
71806;SDS011;59655;42.590;23.364;2023-02-15T06:49:01;12.43;;;10.20;;
71806;SDS011;59655;42.590;23.364;2023-02-15T06:51:26;11.75;;;9.35;;
71806;SDS011;59655;42.590;23.364;2023-02-15T06:53:52;10.07;;;8.50;;
71806;SDS011;59655;42.590;23.364;2023-02-15T06:56:17;12.23;;;9.65;;
71806;SDS011;59655;42.590;23.364;2023-02-15T06:58:42;12.02;;;9.43;;
71806;SDS011;59655;42.590;23.364;2023-02-15T07:01:08;11.98;;;8.55;;
71806;SDS011;59655;42.590;23.364;2023-02-15T07:03:34;9.93;;;8.15;;
71806;SDS011;59655;42.590;23.364;2023-02-15T07:06:01;9.65;;;7.65;;
71806;SDS011;59655;42.590;23.364;2023-02-15T07:08:31;11.18;;;8.57;;
71806;SDS011;59655;42.590;23.364;2023-02-15T07:10:57;9.43;;;7.72;;
71806;SDS011;59655;42.590;23.364;2023-02-15T07:13:43;10.05;;;8.43;;
71806;SDS011;59655;42.590;23.364;2023-02-15T07:16:08;9.93;;;7.97;;
71806;SDS011;59655;42.590;23.364;2023-02-15T07:18:35;10.07;;;7.72;;
71806;SDS011;59655;42.590;23.364;2023-02-15T07:21:01;8.77;;;7.35;;
71806;SDS011;59655;42.590;23.364;2023-02-15T07:23:28;9.05;;;6.88;;
71806;SDS011;59655;42.590;23.364;2023-02-15T07:25:57;8.63;;;6.60;;
71806;SDS011;59655;42.590;23.364;2023-02-15T07:28:23;9.15;;;6.95;;
71806;SDS011;59655;42.590;23.364;2023-02-15T07:30:49;8.50;;;6.85;;
71806;SDS011;59655;42.590;23.364;2023-02-15T07:33:14;9.32;;;7.18;;
71806;SDS011;59655;42.590;23.364;2023-02-15T07:35:59;8.07;;;6.00;;
71806;SDS011;59655;42.590;23.364;2023-02-15T07:38:27;8.63;;;6.55;;
71806;SDS011;59655;42.590;23.364;2023-02-15T07:41:02;7.90;;;6.28;;
71806;SDS011;59655;42.590;23.364;2023-02-15T07:43:34;7.65;;;6.70;;
71806;SDS011;59655;42.590;23.364;2023-02-15T07:46:03;7.32;;;5.90;;
71806;SDS011;59655;42.590;23.364;2023-02-15T07:48:29;7.65;;;6.40;;
71806;SDS011;59655;42.590;23.364;2023-02-15T07:50:58;7.35;;;6.30;;
71806;SDS011;59655;42.590;23.364;2023-02-15T07:53:27;8.27;;;6.15;;
71806;SDS011;59655;42.590;23.364;2023-02-15T07:55:53;8.23;;;6.03;;
71806;SDS011;59655;42.590;23.364;2023-02-15T07:58:20;7.55;;;5.72;;
71806;SDS011;59655;42.590;23.364;2023-02-15T08:00:45;7.10;;;5.57;;
71806;SDS011;59655;42.590;23.364;2023-02-15T08:03:23;7.85;;;6.05;;
71806;SDS011;59655;42.590;23.364;2023-02-15T08:05:55;6.95;;;5.50;;
71806;SDS011;59655;42.590;23.364;2023-02-15T08:08:23;8.43;;;5.97;;
71806;SDS011;59655;42.590;23.364;2023-02-15T08:13:46;8.18;;;6.40;;
71806;SDS011;59655;42.590;23.364;2023-02-15T08:16:19;7.22;;;5.60;;
71806;SDS011;59655;42.590;23.364;2023-02-15T08:18:55;7.10;;;5.63;;
71806;SDS011;59655;42.590;23.364;2023-02-15T08:21:22;7.95;;;6.18;;
71806;SDS011;59655;42.590;23.364;2023-02-15T08:23:50;7.60;;;6.13;;
71806;SDS011;59655;42.590;23.364;2023-02-15T08:26:16;8.10;;;6.22;;
71806;SDS011;59655;42.590;23.364;2023-02-15T08:28:42;6.65;;;5.80;;
71806;SDS011;59655;42.590;23.364;2023-02-15T08:31:08;9.15;;;6.32;;
71806;SDS011;59655;42.590;23.364;2023-02-15T08:33:35;7.72;;;6.45;;
71806;SDS011;59655;42.590;23.364;2023-02-15T08:36:03;10.30;;;6.90;;
71806;SDS011;59655;42.590;23.364;2023-02-15T08:38:33;7.75;;;5.82;;
71806;SDS011;59655;42.590;23.364;2023-02-15T08:41:08;8.38;;;5.85;;
71806;SDS011;59655;42.590;23.364;2023-02-15T08:43:55;7.57;;;6.15;;
71806;SDS011;59655;42.590;23.364;2023-02-15T08:46:22;7.00;;;6.07;;
71806;SDS011;59655;42.590;23.364;2023-02-15T08:48:49;8.43;;;6.60;;
71806;SDS011;59655;42.590;23.364;2023-02-15T08:51:16;8.10;;;6.53;;
71806;SDS011;59655;42.590;23.364;2023-02-15T08:53:44;8.07;;;6.00;;
71806;SDS011;59655;42.590;23.364;2023-02-15T08:56:11;7.40;;;6.43;;
71806;SDS011;59655;42.590;23.364;2023-02-15T08:58:37;7.68;;;6.07;;
71806;SDS011;59655;42.590;23.364;2023-02-15T09:01:13;8.90;;;6.68;;
71806;SDS011;59655;42.590;23.364;2023-02-15T09:03:43;9.07;;;5.80;;
71806;SDS011;59655;42.590;23.364;2023-02-15T09:06:09;6.78;;;5.97;;
71806;SDS011;59655;42.590;23.364;2023-02-15T09:08:34;6.95;;;5.90;;
71806;SDS011;59655;42.590;23.364;2023-02-15T09:11:07;7.85;;;6.43;;
71806;SDS011;59655;42.590;23.364;2023-02-15T09:13:35;7.35;;;5.60;;
71806;SDS011;59655;42.590;23.364;2023-02-15T09:16:02;7.07;;;5.75;;
71806;SDS011;59655;42.590;23.364;2023-02-15T09:18:32;6.82;;;5.63;;
71806;SDS011;59655;42.590;23.364;2023-02-15T09:21:35;6.90;;;5.30;;
71806;SDS011;59655;42.590;23.364;2023-02-15T09:23:57;8.00;;;5.97;;
71806;SDS011;59655;42.590;23.364;2023-02-15T09:26:25;8.77;;;5.90;;
71806;SDS011;59655;42.590;23.364;2023-02-15T09:28:53;7.85;;;6.57;;
71806;SDS011;59655;42.590;23.364;2023-02-15T09:31:26;8.10;;;6.53;;
71806;SDS011;59655;42.590;23.364;2023-02-15T09:33:53;8.18;;;6.35;;
71806;SDS011;59655;42.590;23.364;2023-02-15T09:36:23;7.32;;;6.18;;
71806;SDS011;59655;42.590;23.364;2023-02-15T09:39:33;8.32;;;6.97;;
71806;SDS011;59655;42.590;23.364;2023-02-15T09:55:55;9.73;;;6.95;;
71806;SDS011;59655;42.590;23.364;2023-02-15T09:58:27;9.60;;;8.13;;
71806;SDS011;59655;42.590;23.364;2023-02-15T10:01:20;9.43;;;7.07;;
71806;SDS011;59655;42.590;23.364;2023-02-15T10:20:41;8.75;;;7.28;;
71806;SDS011;59655;42.590;23.364;2023-02-15T10:28:06;8.00;;;6.90;;
71806;SDS011;59655;42.590;23.364;2023-02-15T10:30:47;8.52;;;7.38;;
71806;SDS011;59655;42.590;23.364;2023-02-15T10:34:02;8.68;;;6.95;;
71806;SDS011;59655;42.590;23.364;2023-02-15T10:38:52;9.40;;;6.45;;
71806;SDS011;59655;42.590;23.364;2023-02-15T10:41:46;12.63;;;8.05;;
71806;SDS011;59655;42.590;23.364;2023-02-15T10:47:31;9.95;;;6.72;;
71806;SDS011;59655;42.590;23.364;2023-02-15T10:50:17;9.73;;;7.43;;
71806;SDS011;59655;42.590;23.364;2023-02-15T11:01:32;9.13;;;6.90;;
71806;SDS011;59655;42.590;23.364;2023-02-15T11:06:48;10.15;;;7.72;;
71806;SDS011;59655;42.590;23.364;2023-02-15T11:09:17;10.02;;;7.50;;
71806;SDS011;59655;42.590;23.364;2023-02-15T11:11:48;10.13;;;8.10;;
71806;SDS011;59655;42.590;23.364;2023-02-15T11:14:17;9.57;;;8.57;;
71806;SDS011;59655;42.590;23.364;2023-02-15T11:16:53;9.90;;;8.57;;
71806;SDS011;59655;42.590;23.364;2023-02-15T11:19:31;10.50;;;8.57;;
71806;SDS011;59655;42.590;23.364;2023-02-15T11:22:04;11.00;;;9.07;;
71806;SDS011;59655;42.590;23.364;2023-02-15T11:24:32;11.52;;;8.43;;
71806;SDS011;59655;42.590;23.364;2023-02-15T11:27:03;11.05;;;9.00;;
71806;SDS011;59655;42.590;23.364;2023-02-15T11:29:34;11.27;;;9.15;;
71806;SDS011;59655;42.590;23.364;2023-02-15T11:34:36;9.75;;;8.48;;
71806;SDS011;59655;42.590;23.364;2023-02-15T11:37:06;9.57;;;8.35;;
71806;SDS011;59655;42.590;23.364;2023-02-15T11:39:36;9.82;;;7.50;;
71806;SDS011;59655;42.590;23.364;2023-02-15T11:42:15;9.07;;;8.18;;
71806;SDS011;59655;42.590;23.364;2023-02-15T11:47:40;11.90;;;9.20;;
71806;SDS011;59655;42.590;23.364;2023-02-15T11:50:05;10.40;;;9.10;;
71806;SDS011;59655;42.590;23.364;2023-02-15T11:52:36;9.40;;;8.07;;
71806;SDS011;59655;42.590;23.364;2023-02-15T11:55:01;10.88;;;9.65;;
71806;SDS011;59655;42.590;23.364;2023-02-15T11:57:40;11.23;;;8.10;;
71806;SDS011;59655;42.590;23.364;2023-02-15T12:00:12;10.63;;;8.43;;
71806;SDS011;59655;42.590;23.364;2023-02-15T12:02:46;11.15;;;8.65;;
71806;SDS011;59655;42.590;23.364;2023-02-15T12:05:17;9.52;;;8.50;;
71806;SDS011;59655;42.590;23.364;2023-02-15T12:07:48;9.95;;;8.80;;
71806;SDS011;59655;42.590;23.364;2023-02-15T12:10:38;10.57;;;8.45;;
71806;SDS011;59655;42.590;23.364;2023-02-15T12:13:15;11.32;;;9.23;;
71806;SDS011;59655;42.590;23.364;2023-02-15T12:15:46;10.23;;;8.23;;
71806;SDS011;59655;42.590;23.364;2023-02-15T12:18:40;9.38;;;8.25;;
71806;SDS011;59655;42.590;23.364;2023-02-15T12:21:14;11.98;;;9.45;;
71806;SDS011;59655;42.590;23.364;2023-02-15T12:23:53;11.32;;;8.60;;
71806;SDS011;59655;42.590;23.364;2023-02-15T12:26:25;11.13;;;8.48;;
71806;SDS011;59655;42.590;23.364;2023-02-15T12:28:52;12.23;;;9.00;;
71806;SDS011;59655;42.590;23.364;2023-02-15T12:31:32;11.35;;;9.70;;
71806;SDS011;59655;42.590;23.364;2023-02-15T12:34:07;10.30;;;8.95;;
71806;SDS011;59655;42.590;23.364;2023-02-15T12:36:41;10.23;;;9.13;;
71806;SDS011;59655;42.590;23.364;2023-02-15T12:42:01;10.30;;;8.38;;
71806;SDS011;59655;42.590;23.364;2023-02-15T12:45:01;10.32;;;8.25;;
71806;SDS011;59655;42.590;23.364;2023-02-15T12:47:30;9.88;;;8.82;;
71806;SDS011;59655;42.590;23.364;2023-02-15T12:52:47;10.52;;;8.90;;
71806;SDS011;59655;42.590;23.364;2023-02-15T12:55:23;10.10;;;8.50;;
71806;SDS011;59655;42.590;23.364;2023-02-15T12:58:04;13.13;;;9.93;;
71806;SDS011;59655;42.590;23.364;2023-02-15T13:00:31;12.45;;;9.05;;
71806;SDS011;59655;42.590;23.364;2023-02-15T13:02:57;10.10;;;8.48;;
71806;SDS011;59655;42.590;23.364;2023-02-15T13:05:39;10.40;;;9.27;;
71806;SDS011;59655;42.590;23.364;2023-02-15T13:08:13;10.60;;;9.40;;
71806;SDS011;59655;42.590;23.364;2023-02-15T13:13:24;12.63;;;8.85;;
71806;SDS011;59655;42.590;23.364;2023-02-15T13:15:53;10.45;;;8.93;;
71806;SDS011;59655;42.590;23.364;2023-02-15T13:21:19;11.38;;;9.70;;
71806;SDS011;59655;42.590;23.364;2023-02-15T13:23:50;13.20;;;8.95;;
71806;SDS011;59655;42.590;23.364;2023-02-15T13:26:22;10.57;;;8.50;;
71806;SDS011;59655;42.590;23.364;2023-02-15T13:28:58;14.20;;;9.57;;
71806;SDS011;59655;42.590;23.364;2023-02-15T13:31:33;9.77;;;8.25;;
71806;SDS011;59655;42.590;23.364;2023-02-15T13:34:02;11.88;;;8.95;;
71806;SDS011;59655;42.590;23.364;2023-02-15T13:39:41;11.73;;;9.00;;
71806;SDS011;59655;42.590;23.364;2023-02-15T13:42:19;11.07;;;9.13;;
71806;SDS011;59655;42.590;23.364;2023-02-15T13:47:59;10.23;;;8.93;;
71806;SDS011;59655;42.590;23.364;2023-02-15T14:02:14;11.27;;;8.20;;
71806;SDS011;59655;42.590;23.364;2023-02-15T14:07:32;11.07;;;7.93;;
71806;SDS011;59655;42.590;23.364;2023-02-15T14:28:49;10.45;;;9.00;;
71806;SDS011;59655;42.590;23.364;2023-02-15T14:31:24;11.63;;;9.00;;
71806;SDS011;59655;42.590;23.364;2023-02-15T14:33:55;11.90;;;8.48;;
71806;SDS011;59655;42.590;23.364;2023-02-15T14:36:21;11.90;;;8.55;;
71806;SDS011;59655;42.590;23.364;2023-02-15T14:45:04;10.57;;;8.65;;
71806;SDS011;59655;42.590;23.364;2023-02-15T14:50:54;9.75;;;8.43;;
71806;SDS011;59655;42.590;23.364;2023-02-15T15:01:14;13.25;;;9.43;;
71806;SDS011;59655;42.590;23.364;2023-02-15T15:03:44;11.63;;;9.57;;
71806;SDS011;59655;42.590;23.364;2023-02-15T15:09:24;10.10;;;9.00;;
71806;SDS011;59655;42.590;23.364;2023-02-15T15:11:53;10.98;;;9.48;;
71806;SDS011;59655;42.590;23.364;2023-02-15T15:16:57;11.27;;;9.00;;
71806;SDS011;59655;42.590;23.364;2023-02-15T15:22:16;11.35;;;9.75;;
71806;SDS011;59655;42.590;23.364;2023-02-15T15:30:02;14.93;;;10.52;;
71806;SDS011;59655;42.590;23.364;2023-02-15T15:51:00;11.70;;;10.38;;
71806;SDS011;59655;42.590;23.364;2023-02-15T15:53:29;11.20;;;9.50;;
71806;SDS011;59655;42.590;23.364;2023-02-15T15:55:59;11.52;;;9.45;;
71806;SDS011;59655;42.590;23.364;2023-02-15T15:58:28;11.85;;;9.40;;
71806;SDS011;59655;42.590;23.364;2023-02-15T16:01:09;12.63;;;11.05;;
71806;SDS011;59655;42.590;23.364;2023-02-15T16:03:38;12.88;;;11.30;;
71806;SDS011;59655;42.590;23.364;2023-02-15T16:08:39;23.48;;;18.25;;
71806;SDS011;59655;42.590;23.364;2023-02-15T16:11:16;16.73;;;14.68;;
71806;SDS011;59655;42.590;23.364;2023-02-15T16:13:45;17.05;;;12.55;;
71806;SDS011;59655;42.590;23.364;2023-02-15T16:16:12;17.30;;;14.60;;
71806;SDS011;59655;42.590;23.364;2023-02-15T16:18:44;20.23;;;15.82;;
71806;SDS011;59655;42.590;23.364;2023-02-15T16:21:22;16.42;;;13.20;;
71806;SDS011;59655;42.590;23.364;2023-02-15T16:29:15;12.60;;;10.55;;
71806;SDS011;59655;42.590;23.364;2023-02-15T16:31:42;12.75;;;10.35;;
71806;SDS011;59655;42.590;23.364;2023-02-15T16:34:17;13.88;;;11.60;;
71806;SDS011;59655;42.590;23.364;2023-02-15T16:36:43;28.40;;;19.48;;
71806;SDS011;59655;42.590;23.364;2023-02-15T16:39:10;35.35;;;22.25;;
71806;SDS011;59655;42.590;23.364;2023-02-15T16:41:43;66.72;;;44.28;;
71806;SDS011;59655;42.590;23.364;2023-02-15T16:44:18;56.45;;;39.45;;
71806;SDS011;59655;42.590;23.364;2023-02-15T16:46:46;19.63;;;16.63;;
71806;SDS011;59655;42.590;23.364;2023-02-15T16:49:17;27.40;;;19.17;;
71806;SDS011;59655;42.590;23.364;2023-02-15T16:51:58;33.35;;;24.48;;
71806;SDS011;59655;42.590;23.364;2023-02-15T16:54:26;42.75;;;29.30;;
71806;SDS011;59655;42.590;23.364;2023-02-15T16:56:53;59.05;;;39.22;;
71806;SDS011;59655;42.590;23.364;2023-02-15T16:59:27;44.33;;;29.25;;
71806;SDS011;59655;42.590;23.364;2023-02-15T17:01:56;37.97;;;25.98;;
71806;SDS011;59655;42.590;23.364;2023-02-15T17:09:28;43.67;;;26.80;;
71806;SDS011;59655;42.590;23.364;2023-02-15T17:11:54;49.10;;;29.83;;
71806;SDS011;59655;42.590;23.364;2023-02-15T17:14:20;47.38;;;31.70;;
71806;SDS011;59655;42.590;23.364;2023-02-15T17:16:50;53.30;;;32.95;;
71806;SDS011;59655;42.590;23.364;2023-02-15T17:19:20;61.28;;;38.47;;
71806;SDS011;59655;42.590;23.364;2023-02-15T17:21:55;67.32;;;39.92;;
71806;SDS011;59655;42.590;23.364;2023-02-15T17:24:34;39.28;;;26.55;;
71806;SDS011;59655;42.590;23.364;2023-02-15T17:27:07;33.22;;;23.17;;
71806;SDS011;59655;42.590;23.364;2023-02-15T17:29:48;33.47;;;24.50;;
71806;SDS011;59655;42.590;23.364;2023-02-15T17:32:34;40.63;;;27.23;;
71806;SDS011;59655;42.590;23.364;2023-02-15T17:35:20;30.00;;;20.75;;
71806;SDS011;59655;42.590;23.364;2023-02-15T17:37:48;28.90;;;21.77;;
71806;SDS011;59655;42.590;23.364;2023-02-15T17:42:45;25.00;;;19.17;;
71806;SDS011;59655;42.590;23.364;2023-02-15T17:45:10;23.20;;;17.25;;
71806;SDS011;59655;42.590;23.364;2023-02-15T17:47:35;19.65;;;15.55;;
71806;SDS011;59655;42.590;23.364;2023-02-15T17:50:02;25.50;;;18.83;;
71806;SDS011;59655;42.590;23.364;2023-02-15T17:52:30;32.58;;;22.48;;
71806;SDS011;59655;42.590;23.364;2023-02-15T17:54:56;31.30;;;25.25;;
71806;SDS011;59655;42.590;23.364;2023-02-15T17:57:40;24.13;;;17.63;;
71806;SDS011;59655;42.590;23.364;2023-02-15T18:00:06;22.30;;;16.63;;
71806;SDS011;59655;42.590;23.364;2023-02-15T18:02:51;36.17;;;27.30;;
71806;SDS011;59655;42.590;23.364;2023-02-15T18:05:35;32.38;;;23.73;;
71806;SDS011;59655;42.590;23.364;2023-02-15T18:08:20;36.08;;;27.52;;
71806;SDS011;59655;42.590;23.364;2023-02-15T18:11:09;22.17;;;17.40;;
71806;SDS011;59655;42.590;23.364;2023-02-15T18:13:52;24.20;;;19.30;;
71806;SDS011;59655;42.590;23.364;2023-02-15T18:16:21;20.90;;;15.63;;
71806;SDS011;59655;42.590;23.364;2023-02-15T18:18:51;20.40;;;16.90;;